< < Back
Terminal Aerodrome Forecast


Current Version              Previous Versions:   1  2  3  4  5  6  7  8  9  

Terminal Aerodrome Forecast

816
FTUS42 KJAX 272300
TAFJAX
TAF
KJAX 272330Z 2800/2824 24007KT P6SM SCT250
     FM281400 25011G16KT P6SM SCT030 SCT250
     FM282200 26012G20KT P6SM VCTS BKN035CB BKN250
      TEMPO 2822/2824 3SM -TSRA OVC030CB=

Latest METAR

471
SAUS80 KWBC 280800
MTRJAX
METAR KJAX 280756Z 25006KT 10SM SCT250 26/25 A2997 RMK AO2 SLP150
T02610250 $


USA.gov is the U.S. government's official web portal to all federal, state and local government web resources and services.